Time;durP1;ratioP1;P1;durP2;ratioP2;P2;SDS_P1;SDS_P2;PMS_P1;PMS_P2;Temp;Humidity;BMP_temperature;BMP_pressure;BME280_temperature;BME280_humidity;BME280_pressure;Samples;Min_cycle;Max_cycle;Signal;HPM_P1;HPM_P2
2023/09/16 00:01:33;;;;;;;6.03;4.75;;;16.70;66.50;;;;;;5056274;28;20489;-69
2023/09/16 00:03:59;;;;;;;6.70;5.30;;;16.70;66.60;;;;;;5055250;28;20476;-69
2023/09/16 00:06:25;;;;;;;6.43;5.90;;;16.60;66.40;;;;;;5053759;28;20123;-71
2023/09/16 00:08:51;;;;;;;6.15;5.55;;;16.60;66.50;;;;;;5058633;28;20082;-71
2023/09/16 00:11:17;;;;;;;6.45;5.85;;;16.50;66.30;;;;;;5055440;28;20037;-71
2023/09/16 00:13:43;;;;;;;7.68;5.63;;;16.60;66.50;;;;;;5051029;28;20439;-70
2023/09/16 00:16:12;;;;;;;9.65;6.28;;;16.60;66.60;;;;;;5053743;28;20381;-71
2023/09/16 00:18:38;;;;;;;5.72;5.13;;;16.50;66.50;;;;;;5059549;28;20620;-71
2023/09/16 00:21:05;;;;;;;6.95;5.82;;;16.50;66.60;;;;;;5049182;28;20064;-71
2023/09/16 00:23:31;;;;;;;8.18;6.10;;;16.50;66.60;;;;;;5059989;28;20032;-71
2023/09/16 00:25:58;;;;;;;6.25;5.50;;;16.50;66.60;;;;;;5058461;28;20550;-69
2023/09/16 00:28:25;;;;;;;6.38;5.72;;;16.40;66.50;;;;;;5058699;28;20450;-69
2023/09/16 00:30:51;;;;;;;5.60;5.10;;;16.50;66.80;;;;;;5049850;28;20107;-69
2023/09/16 00:33:17;;;;;;;7.75;6.28;;;16.40;66.70;;;;;;5055910;28;20115;-71
2023/09/16 00:35:43;;;;;;;6.50;5.78;;;16.40;66.70;;;;;;5055365;28;20124;-68
2023/09/16 00:38:09;;;;;;;7.57;5.57;;;16.40;66.80;;;;;;5057332;28;20048;-69
2023/09/16 00:40:36;;;;;;;6.85;5.88;;;16.30;66.70;;;;;;5056857;28;20029;-72
2023/09/16 00:43:03;;;;;;;6.68;5.97;;;16.30;66.80;;;;;;5057039;28;20364;-72
2023/09/16 00:45:29;;;;;;;6.05;5.45;;;16.30;66.70;;;;;;5050591;28;20380;-72
2023/09/16 00:47:55;;;;;;;8.57;6.40;;;16.30;66.80;;;;;;5056225;28;20033;-68
2023/09/16 00:50:21;;;;;;;6.72;5.82;;;16.30;66.80;;;;;;5050966;28;20032;-68
2023/09/16 00:52:52;;;;;;;6.50;5.90;;;16.30;66.90;;;;;;5057094;28;20142;-70
2023/09/16 00:55:18;;;;;;;8.25;6.78;;;16.30;66.90;;;;;;5054669;28;20132;-70
2023/09/16 00:57:47;;;;;;;7.18;6.05;;;16.30;66.90;;;;;;5059909;28;20259;-71
2023/09/16 01:00:16;;;;;;;6.25;5.65;;;16.30;67.00;;;;;;5058329;28;20039;-73
2023/09/16 01:02:45;;;;;;;8.90;6.88;;;16.20;66.80;;;;;;5057415;28;20395;-68
2023/09/16 01:05:15;;;;;;;7.22;6.13;;;16.20;66.90;;;;;;5058045;28;20041;-74
2023/09/16 01:07:41;;;;;;;7.35;6.60;;;16.20;66.90;;;;;;5062931;28;20446;-72
2023/09/16 01:10:13;;;;;;;6.95;6.05;;;16.20;66.90;;;;;;5061401;28;20098;-71
2023/09/16 01:12:39;;;;;;;7.65;6.50;;;16.20;67.00;;;;;;5064851;28;20043;-71
2023/09/16 01:15:08;;;;;;;7.82;6.50;;;16.20;67.00;;;;;;5072321;28;20028;-70
2023/09/16 01:18:19;;;;;;;8.35;7.22;;;16.10;66.90;;;;;;5067067;28;20021;-73
2023/09/16 01:20:48;;;;;;;7.55;6.72;;;16.10;67.00;;;;;;5031017;28;20055;-73
2023/09/16 01:23:18;;;;;;;10.02;6.70;;;16.10;66.90;;;;;;5054003;28;20483;-73
2023/09/16 01:25:44;;;;;;;8.20;6.38;;;16.10;67.10;;;;;;5058337;28;20020;-72
2023/09/16 01:28:10;;;;;;;7.43;6.50;;;16.00;66.90;;;;;;5062395;28;20043;-74
2023/09/16 01:30:39;;;;;;;11.02;7.32;;;16.00;67.00;;;;;;5060003;28;20036;-72
2023/09/16 01:33:19;;;;;;;8.15;6.53;;;16.00;67.00;;;;;;5057049;28;20051;-70
2023/09/16 01:35:50;;;;;;;7.57;6.88;;;16.00;67.10;;;;;;5058530;28;20078;-68
2023/09/16 01:38:21;;;;;;;7.10;6.40;;;16.00;67.10;;;;;;5057555;28;20053;-68
2023/09/16 01:40:50;;;;;;;7.55;6.85;;;15.90;67.00;;;;;;5058792;28;20090;-69
2023/09/16 01:43:17;;;;;;;6.68;6.07;;;15.90;67.00;;;;;;5059230;28;20047;-71
2023/09/16 01:45:44;;;;;;;7.85;7.07;;;15.90;67.10;;;;;;5061983;28;20039;-74
2023/09/16 01:48:11;;;;;;;8.73;6.78;;;15.90;67.60;;;;;;5052200;28;20286;-77
2023/09/16 01:50:37;;;;;;;8.43;7.03;;;15.90;67.10;;;;;;5057166;28;20032;-71
2023/09/16 01:53:06;;;;;;;6.72;6.13;;;15.90;67.20;;;;;;5056837;28;20063;-73
2023/09/16 01:55:33;;;;;;;9.48;7.07;;;15.90;67.30;;;;;;5048662;28;20060;-74
2023/09/16 01:58:03;;;;;;;7.63;6.95;;;15.80;67.10;;;;;;5052493;28;20021;-71
2023/09/16 02:00:31;;;;;;;8.70;6.28;;;15.80;67.10;;;;;;5055207;28;20070;-73
2023/09/16 02:02:58;;;;;;;8.20;6.75;;;15.90;67.30;;;;;;5051930;28;20041;-75
2023/09/16 02:05:25;;;;;;;9.02;7.50;;;15.80;67.20;;;;;;5051915;28;20051;-71
2023/09/16 02:07:51;;;;;;;8.35;6.82;;;15.80;67.20;;;;;;5054781;28;20049;-74
2023/09/16 02:10:17;;;;;;;7.85;7.10;;;15.90;67.40;;;;;;5056959;28;20045;-69
2023/09/16 02:12:44;;;;;;;7.57;6.88;;;15.80;67.80;;;;;;5052135;28;20376;-72
2023/09/16 02:15:10;;;;;;;6.95;6.32;;;15.80;67.30;;;;;;5054186;28;20499;-72
2023/09/16 02:17:39;;;;;;;7.15;6.45;;;15.80;67.40;;;;;;5051669;28;20032;-76
2023/09/16 02:20:14;;;;;;;8.38;6.28;;;15.80;67.40;;;;;;5058234;28;20448;-75
2023/09/16 02:22:41;;;;;;;8.07;6.78;;;15.80;67.40;;;;;;5053131;28;20037;-76
2023/09/16 02:25:08;;;;;;;8.68;7.68;;;15.70;67.30;;;;;;5055196;28;20040;-75
2023/09/16 02:27:34;;;;;;;8.60;7.53;;;15.70;67.30;;;;;;5051992;28;20039;-75
2023/09/16 02:30:00;;;;;;;7.70;7.00;;;15.70;67.40;;;;;;5055458;28;20024;-76
2023/09/16 02:32:26;;;;;;;10.02;7.18;;;15.70;67.40;;;;;;5030387;28;20040;-73
2023/09/16 02:34:53;;;;;;;7.47;6.50;;;15.60;67.30;;;;;;5053891;28;20143;-75
2023/09/16 02:37:23;;;;;;;7.50;6.80;;;15.60;67.30;;;;;;5045366;28;20071;-75
2023/09/16 02:39:49;;;;;;;8.73;7.22;;;15.60;67.30;;;;;;5052173;28;20021;-71
2023/09/16 02:42:17;;;;;;;8.75;7.40;;;15.60;67.40;;;;;;5039157;28;20399;-71
2023/09/16 02:44:43;;;;;;;8.82;7.35;;;15.60;67.40;;;;;;5056044;28;20037;-70
2023/09/16 02:47:10;;;;;;;8.70;7.18;;;15.60;67.50;;;;;;5052898;28;20064;-72
2023/09/16 02:49:37;;;;;;;9.10;7.72;;;15.60;67.50;;;;;;5055460;28;20025;-75
2023/09/16 02:52:03;;;;;;;7.20;6.50;;;15.50;67.40;;;;;;5052487;28;20037;-74
2023/09/16 02:54:29;;;;;;;7.45;6.75;;;15.50;67.40;;;;;;5055792;28;20024;-76
2023/09/16 02:56:55;;;;;;;8.20;7.43;;;15.50;67.40;;;;;;5052606;28;20043;-76
2023/09/16 02:59:21;;;;;;;7.85;7.05;;;15.50;67.50;;;;;;5055823;28;20207;-73
2023/09/16 03:01:47;;;;;;;7.25;6.50;;;15.50;67.50;;;;;;5039001;28;20040;-76
2023/09/16 03:04:14;;;;;;;7.53;6.78;;;15.50;67.50;;;;;;5050856;28;20029;-72
2023/09/16 03:06:40;;;;;;;8.77;7.63;;;15.50;67.60;;;;;;5050430;28;20035;-78
2023/09/16 03:09:06;;;;;;;8.70;7.20;;;15.50;67.60;;;;;;5040601;28;20111;-70
2023/09/16 03:11:37;;;;;;;9.13;7.78;;;15.40;67.50;;;;;;5047512;28;20034;-76
2023/09/16 03:14:03;;;;;;;7.97;7.18;;;15.40;67.50;;;;;;5050535;28;20063;-70
2023/09/16 03:16:31;;;;;;;8.10;7.18;;;15.40;67.50;;;;;;5036832;28;20029;-70
2023/09/16 03:18:58;;;;;;;8.02;7.22;;;15.40;67.60;;;;;;5039012;28;20129;-73
2023/09/16 03:21:25;;;;;;;7.60;6.82;;;15.40;67.60;;;;;;5055505;28;20673;-73
2023/09/16 03:23:57;;;;;;;9.90;7.97;;;15.40;67.70;;;;;;5046947;28;20029;-72
2023/09/16 03:26:23;;;;;;;7.72;7.00;;;15.40;67.70;;;;;;5053618;28;20037;-71
2023/09/16 03:28:53;;;;;;;8.55;6.82;;;15.30;67.60;;;;;;5052866;28;20523;-70
2023/09/16 03:31:23;;;;;;;8.10;7.30;;;15.30;67.60;;;;;;5050133;28;20032;-73
2023/09/16 03:33:49;;;;;;;9.70;7.53;;;15.30;67.60;;;;;;5054265;28;20033;-72
2023/09/16 03:36:15;;;;;;;8.60;6.70;;;15.30;67.70;;;;;;5046365;28;20091;-72
2023/09/16 03:38:49;;;;;;;7.88;6.75;;;15.30;67.70;;;;;;5052726;28;20040;-71
2023/09/16 03:41:16;;;;;;;8.45;7.35;;;15.20;67.60;;;;;;5051935;28;20043;-71
2023/09/16 03:43:44;;;;;;;9.07;7.45;;;15.30;67.80;;;;;;5052439;28;20025;-68
2023/09/16 03:46:11;;;;;;;8.88;8.05;;;15.20;67.70;;;;;;5050952;28;20024;-69
2023/09/16 03:48:37;;;;;;;7.90;7.10;;;15.20;67.70;;;;;;5052997;28;20036;-74
2023/09/16 03:51:06;;;;;;;8.50;7.45;;;15.20;67.80;;;;;;5049540;28;20400;-71
2023/09/16 03:53:35;;;;;;;8.48;7.65;;;15.20;67.80;;;;;;5050031;28;20036;-74
2023/09/16 03:56:08;;;;;;;8.20;7.35;;;15.20;67.90;;;;;;5049304;28;20017;-73
2023/09/16 03:58:36;;;;;;;8.95;7.85;;;15.20;67.90;;;;;;5053354;28;20037;-76
2023/09/16 04:01:02;;;;;;;8.52;7.72;;;15.20;67.90;;;;;;5052392;28;20645;-75
2023/09/16 04:03:30;;;;;;;8.48;7.57;;;15.20;68.00;;;;;;5052000;28;20684;-72
2023/09/16 04:05:58;;;;;;;8.90;7.40;;;15.20;68.00;;;;;;5046367;28;20626;-71
2023/09/16 04:08:26;;;;;;;7.80;7.10;;;15.20;68.00;;;;;;5058224;28;20032;-72
2023/09/16 04:10:52;;;;;;;9.15;7.10;;;15.20;68.10;;;;;;5051070;28;20060;-73
2023/09/16 04:13:19;;;;;;;7.90;7.10;;;15.20;68.10;;;;;;5050716;28;20033;-76
2023/09/16 04:15:45;;;;;;;8.68;6.97;;;15.20;68.10;;;;;;5041807;28;20116;-76
2023/09/16 04:18:11;;;;;;;8.73;7.53;;;15.20;68.20;;;;;;5052852;28;20032;-76
2023/09/16 04:20:37;;;;;;;8.43;7.28;;;15.20;68.20;;;;;;5050622;28;20031;-72
2023/09/16 04:23:03;;;;;;;8.18;7.43;;;15.10;68.10;;;;;;5046890;28;20135;-73
2023/09/16 04:25:30;;;;;;;8.52;7.70;;;15.20;68.20;;;;;;5051571;28;20029;-76
2023/09/16 04:27:56;;;;;;;8.70;8.00;;;15.20;68.30;;;;;;5053410;28;20032;-74
2023/09/16 04:30:22;;;;;;;8.60;7.70;;;15.10;68.20;;;;;;5055343;28;20028;-73
2023/09/16 04:32:48;;;;;;;9.57;8.30;;;15.10;68.20;;;;;;5052729;28;20119;-74
2023/09/16 04:35:14;;;;;;;9.60;8.68;;;15.20;68.40;;;;;;5054240;28;20151;-71
2023/09/16 04:37:43;;;;;;;9.35;8.45;;;15.20;68.50;;;;;;5056750;28;20052;-73
2023/09/16 04:40:11;;;;;;;9.40;8.45;;;15.20;68.50;;;;;;5053444;28;20304;-71
2023/09/16 04:42:37;;;;;;;9.57;8.65;;;15.10;68.40;;;;;;5057798;28;20113;-72
2023/09/16 04:45:07;;;;;;;8.25;7.53;;;15.10;68.40;;;;;;5059053;28;20041;-69
2023/09/16 04:47:34;;;;;;;10.15;8.30;;;15.20;68.60;;;;;;5055669;28;20117;-70
2023/09/16 04:50:00;;;;;;;9.25;8.23;;;15.20;68.60;;;;;;5056318;28;20033;-71
2023/09/16 04:52:29;;;;;;;9.82;8.73;;;15.10;68.50;;;;;;5076001;28;20458;-70
2023/09/16 04:54:55;;;;;;;8.80;7.85;;;15.20;68.70;;;;;;5058661;28;20025;-68
2023/09/16 04:57:21;;;;;;;9.05;8.25;;;15.20;68.80;;;;;;5057906;28;20364;-71
2023/09/16 04:59:48;;;;;;;9.73;8.90;;;15.20;68.80;;;;;;5058425;28;20444;-72
2023/09/16 05:02:15;;;;;;;10.30;9.15;;;15.20;68.80;;;;;;5059137;28;20258;-72
2023/09/16 05:04:41;;;;;;;9.52;8.07;;;15.20;68.90;;;;;;5060478;28;20048;-70
2023/09/16 05:07:09;;;;;;;11.27;10.18;;;15.20;68.90;;;;;;5063901;28;20433;-81
2023/09/16 05:09:35;;;;;;;11.30;10.15;;;15.20;68.90;;;;;;5056408;28;20017;-73
2023/09/16 05:12:02;;;;;;;10.00;8.95;;;15.20;68.90;;;;;;5056065;28;20461;-69
2023/09/16 05:14:29;;;;;;;9.63;8.73;;;15.30;69.10;;;;;;5053433;28;20028;-69
2023/09/16 05:16:55;;;;;;;9.63;8.65;;;15.20;68.90;;;;;;5055339;28;20042;-76
2023/09/16 05:19:22;;;;;;;11.02;9.93;;;15.20;69.00;;;;;;5054836;28;20451;-75
2023/09/16 05:21:49;;;;;;;11.30;9.25;;;15.30;69.10;;;;;;5052817;28;20041;-70
2023/09/16 05:24:16;;;;;;;10.10;9.05;;;15.30;69.20;;;;;;5071058;28;20616;-68
2023/09/16 05:26:42;;;;;;;10.95;10.05;;;15.30;69.20;;;;;;5063366;28;20095;-70
2023/09/16 05:29:08;;;;;;;11.38;10.32;;;15.30;69.20;;;;;;5068009;28;20147;-69
2023/09/16 05:31:35;;;;;;;13.48;12.10;;;15.30;69.30;;;;;;5064748;28;20443;-70
2023/09/16 05:34:01;;;;;;;11.32;10.23;;;15.30;69.30;;;;;;5079170;28;20028;-70
2023/09/16 05:36:27;;;;;;;13.20;10.82;;;15.40;69.50;;;;;;5060379;28;20101;-72
2023/09/16 05:38:54;;;;;;;11.77;10.60;;;15.40;69.50;;;;;;5049251;28;20495;-70
2023/09/16 05:41:20;;;;;;;13.65;10.55;;;15.40;69.50;;;;;;5063507;28;20483;-68
2023/09/16 05:43:46;;;;;;;11.13;10.05;;;15.40;69.60;;;;;;5050437;28;20029;-70
2023/09/16 05:46:12;;;;;;;10.57;9.68;;;15.40;70.10;;;;;;5056142;28;20474;-73
2023/09/16 05:48:38;;;;;;;12.57;11.25;;;15.50;69.70;;;;;;5059899;28;20069;-71
2023/09/16 05:51:04;;;;;;;10.88;9.75;;;15.50;69.70;;;;;;5050715;28;20477;-71
2023/09/16 05:53:34;;;;;;;12.05;10.85;;;15.50;69.70;;;;;;5054327;28;20048;-76
2023/09/16 05:56:04;;;;;;;11.68;10.48;;;15.50;69.70;;;;;;5050983;28;20044;-69
2023/09/16 05:58:32;;;;;;;11.55;10.02;;;15.60;69.90;;;;;;5059068;28;20298;-71
2023/09/16 06:00:58;;;;;;;12.90;11.60;;;15.60;69.90;;;;;;5057982;28;20119;-71
2023/09/16 06:03:24;;;;;;;11.70;10.52;;;15.60;69.90;;;;;;5056766;28;20033;-75
2023/09/16 06:05:57;;;;;;;12.32;11.00;;;15.60;69.80;;;;;;5057355;28;20805;-70
2023/09/16 06:08:23;;;;;;;12.32;10.85;;;15.70;70.10;;;;;;5062576;28;20131;-69
2023/09/16 06:10:49;;;;;;;11.63;10.55;;;15.70;70.00;;;;;;5053415;28;20029;-71
2023/09/16 06:13:15;;;;;;;11.57;10.13;;;15.70;70.10;;;;;;5056770;28;20025;-70
2023/09/16 06:15:44;;;;;;;13.25;10.48;;;15.70;70.10;;;;;;5056155;28;20355;-71
2023/09/16 06:18:13;;;;;;;12.02;10.75;;;15.70;70.10;;;;;;5056589;28;20543;-69
2023/09/16 06:20:42;;;;;;;11.70;10.50;;;15.70;70.10;;;;;;5052094;28;20025;-72
2023/09/16 06:23:09;;;;;;;11.20;10.10;;;15.70;70.10;;;;;;5058839;28;20044;-70
2023/09/16 06:25:35;;;;;;;12.38;11.25;;;15.80;70.80;;;;;;5058324;28;20029;-70
2023/09/16 06:28:03;;;;;;;11.68;10.43;;;15.80;70.30;;;;;;5056973;28;20439;-69
2023/09/16 06:30:29;;;;;;;11.57;10.43;;;15.80;70.30;;;;;;5057648;28;20032;-69
2023/09/16 06:32:57;;;;;;;11.52;10.38;;;15.80;70.40;;;;;;5057042;28;20174;-70
2023/09/16 06:35:23;;;;;;;12.35;11.25;;;15.80;70.40;;;;;;5055433;28;20309;-71
2023/09/16 06:37:50;;;;;;;12.18;10.88;;;15.80;70.50;;;;;;5056681;28;20044;-70
2023/09/16 06:40:17;;;;;;;11.23;10.13;;;15.90;70.70;;;;;;5056479;28;20040;-71
2023/09/16 06:42:44;;;;;;;12.05;10.85;;;15.90;70.70;;;;;;5054958;28;20147;-70
2023/09/16 06:45:12;;;;;;;11.75;10.63;;;15.90;70.80;;;;;;5057003;28;20144;-70
2023/09/16 06:47:39;;;;;;;12.68;11.45;;;15.90;70.80;;;;;;5054760;28;20479;-71
2023/09/16 06:50:06;;;;;;;11.40;10.40;;;16.00;71.00;;;;;;5053124;28;20072;-70
2023/09/16 06:52:32;;;;;;;11.85;10.75;;;16.00;71.10;;;;;;5056482;28;20437;-71
2023/09/16 06:54:58;;;;;;;12.25;11.02;;;16.00;71.10;;;;;;5058184;28;20420;-70
2023/09/16 06:57:24;;;;;;;11.60;10.38;;;16.00;71.20;;;;;;5055652;28;20412;-71
2023/09/16 06:59:53;;;;;;;12.35;10.98;;;16.10;71.40;;;;;;5055372;28;20037;-70
2023/09/16 07:02:19;;;;;;;13.48;12.10;;;16.00;71.30;;;;;;5049420;28;20578;-68
2023/09/16 07:04:46;;;;;;;12.88;11.57;;;16.00;71.30;;;;;;5054175;28;20638;-70
2023/09/16 07:07:12;;;;;;;11.10;10.05;;;16.10;71.50;;;;;;5056952;28;20094;-69
2023/09/16 07:09:38;;;;;;;11.23;10.23;;;16.10;71.60;;;;;;5058378;28;20308;-70
2023/09/16 07:12:06;;;;;;;12.30;10.98;;;16.10;71.70;;;;;;5054430;28;20039;-69
2023/09/16 07:14:36;;;;;;;10.52;8.95;;;16.20;71.90;;;;;;5055051;28;20105;-69
2023/09/16 07:17:03;;;;;;;12.50;11.07;;;16.20;72.20;;;;;;5056927;28;20035;-70
2023/09/16 07:19:29;;;;;;;14.63;13.07;;;16.30;72.70;;;;;;5055935;28;20040;-70
2023/09/16 07:21:54;;;;;;;15.13;13.80;;;16.40;73.60;;;;;;5052663;28;20040;-70
2023/09/16 07:24:20;;;;;;;18.67;15.82;;;16.40;73.20;;;;;;5057415;28;20125;-70
2023/09/16 07:26:46;;;;;;;18.52;16.60;;;16.50;73.50;;;;;;5056738;28;20032;-70
2023/09/16 07:29:12;;;;;;;17.77;15.93;;;16.50;73.60;;;;;;5056740;28;20032;-69
2023/09/16 07:31:41;;;;;;;20.42;18.33;;;16.60;73.90;;;;;;5054745;28;20036;-69
2023/09/16 07:34:07;;;;;;;20.52;17.75;;;16.70;74.30;;;;;;5055463;28;20059;-69
2023/09/16 07:36:33;;;;;;;21.38;19.08;;;16.70;74.40;;;;;;5054431;28;20098;-69
2023/09/16 07:38:59;;;;;;;20.30;18.15;;;16.80;74.70;;;;;;5055079;28;20052;-69
2023/09/16 07:41:25;;;;;;;19.95;17.88;;;16.90;75.00;;;;;;5057003;28;20040;-69
2023/09/16 07:43:51;;;;;;;18.25;16.33;;;16.90;75.00;;;;;;5052636;28;20043;-69
2023/09/16 07:46:21;;;;;;;20.30;16.45;;;17.00;75.30;;;;;;5053497;28;20071;-70
2023/09/16 07:48:50;;;;;;;21.33;15.98;;;17.10;75.60;;;;;;5054854;28;20352;-70
2023/09/16 07:51:16;;;;;;;17.92;15.95;;;17.10;75.70;;;;;;5056549;28;20419;-68
2023/09/16 07:53:43;;;;;;;17.42;15.60;;;17.20;76.00;;;;;;5058708;28;20395;-69
2023/09/16 07:56:09;;;;;;;19.23;16.73;;;17.30;76.40;;;;;;5051420;28;20506;-69
2023/09/16 07:58:35;;;;;;;20.52;18.63;;;17.40;76.50;;;;;;5055030;28;20032;-69
2023/09/16 08:01:01;;;;;;;20.98;18.92;;;17.50;76.50;;;;;;5055020;28;20035;-70
2023/09/16 08:03:28;;;;;;;20.98;18.75;;;17.50;76.40;;;;;;5051639;28;20048;-69
2023/09/16 08:05:54;;;;;;;23.42;19.55;;;17.50;76.30;;;;;;5055530;28;20029;-70
2023/09/16 08:08:21;;;;;;;22.20;19.77;;;17.60;76.50;;;;;;5057496;28;20051;-69
2023/09/16 08:10:50;;;;;;;23.67;21.17;;;17.60;76.40;;;;;;5051958;28;20043;-69
2023/09/16 08:13:17;;;;;;;23.67;21.33;;;17.60;77.00;;;;;;5055717;28;20044;-69
2023/09/16 08:15:43;;;;;;;23.50;21.00;;;17.60;76.40;;;;;;5054649;28;20674;-69
2023/09/16 08:18:09;;;;;;;29.35;23.35;;;17.60;76.50;;;;;;5050735;28;20247;-69
2023/09/16 08:20:35;;;;;;;28.02;23.70;;;17.70;76.70;;;;;;5054142;28;20040;-69
2023/09/16 08:23:01;;;;;;;25.88;22.38;;;17.70;76.70;;;;;;5061770;28;20395;-70
2023/09/16 08:25:30;;;;;;;28.55;24.38;;;17.80;76.90;;;;;;5055661;28;20040;-70
2023/09/16 08:27:56;;;;;;;25.90;23.20;;;17.80;76.90;;;;;;5057705;28;20437;-70
2023/09/16 08:30:22;;;;;;;29.90;24.40;;;17.80;76.90;;;;;;5064806;28;20040;-69
2023/09/16 08:32:48;;;;;;;26.65;22.83;;;17.90;77.10;;;;;;5057007;28;20052;-70
2023/09/16 08:35:14;;;;;;;28.83;23.50;;;17.90;77.10;;;;;;5056099;28;20435;-70
2023/09/16 08:37:40;;;;;;;27.88;24.85;;;18.00;77.30;;;;;;5058873;28;20057;-69
2023/09/16 08:40:07;;;;;;;28.15;24.60;;;18.00;77.20;;;;;;5055616;28;20115;-70
2023/09/16 08:42:35;;;;;;;28.90;25.85;;;18.10;77.40;;;;;;5048339;28;20047;-70
2023/09/16 08:45:05;;;;;;;27.85;24.17;;;18.10;77.30;;;;;;5048232;28;20039;-70
2023/09/16 08:47:39;;;;;;;27.92;25.10;;;18.20;77.50;;;;;;5049804;28;20086;-69
2023/09/16 08:50:07;;;;;;;28.83;25.88;;;18.20;77.40;;;;;;5052871;28;20107;-70
2023/09/16 08:52:49;;;;;;;30.27;27.00;;;18.20;77.40;;;;;;5057241;28;20442;-71
2023/09/16 08:55:16;;;;;;;27.55;24.80;;;18.20;77.30;;;;;;5056112;28;20173;-70
2023/09/16 08:57:47;;;;;;;32.42;25.98;;;18.30;77.40;;;;;;5054440;28;20054;-69
2023/09/16 09:00:14;;;;;;;28.48;25.58;;;18.30;77.50;;;;;;5054634;28;20645;-69
2023/09/16 09:02:41;;;;;;;29.63;26.58;;;18.30;77.50;;;;;;5052487;28;20420;-69
2023/09/16 09:05:08;;;;;;;29.15;26.05;;;18.30;77.50;;;;;;5051757;28;20044;-69
2023/09/16 09:07:37;;;;;;;26.20;23.67;;;18.30;77.50;;;;;;5051421;28;20040;-69
2023/09/16 09:10:05;;;;;;;27.23;24.63;;;18.30;77.60;;;;;;5055910;28;20125;-70
2023/09/16 09:12:37;;;;;;;27.85;25.17;;;18.40;77.70;;;;;;5055996;28;20043;-70
2023/09/16 09:15:10;;;;;;;26.65;23.80;;;18.40;77.70;;;;;;5053866;28;20750;-72
2023/09/16 09:17:45;;;;;;;25.23;22.58;;;18.50;77.80;;;;;;5054578;28;20024;-70
2023/09/16 09:20:18;;;;;;;24.55;22.02;;;18.60;78.00;;;;;;5051140;28;20029;-69
2023/09/16 09:22:50;;;;;;;25.73;23.15;;;18.60;77.80;;;;;;5056871;28;20042;-70
2023/09/16 09:25:22;;;;;;;27.75;24.85;;;18.70;77.70;;;;;;5056882;28;20543;-69
2023/09/16 09:27:50;;;;;;;25.98;23.38;;;18.70;77.60;;;;;;5034649;28;20044;-69
2023/09/16 09:30:21;;;;;;;26.58;23.98;;;18.80;78.20;;;;;;5056220;28;20101;-69
2023/09/16 09:32:47;;;;;;;26.23;23.77;;;18.80;77.50;;;;;;5059337;28;20745;-70
2023/09/16 09:35:20;;;;;;;26.63;23.95;;;18.80;77.40;;;;;;5059596;28;20036;-71
2023/09/16 09:37:49;;;;;;;25.90;23.25;;;18.80;77.30;;;;;;5060827;28;21640;-69
2023/09/16 09:40:16;;;;;;;25.95;23.42;;;18.80;77.20;;;;;;5062683;28;20221;-71
2023/09/16 09:42:48;;;;;;;25.02;22.33;;;18.80;77.10;;;;;;5061998;28;20348;-70
2023/09/16 09:45:16;;;;;;;26.02;23.55;;;18.80;77.10;;;;;;5056236;28;20040;-70
2023/09/16 09:47:43;;;;;;;25.83;23.25;;;18.80;77.00;;;;;;5056881;28;20321;-70
2023/09/16 09:50:15;;;;;;;25.10;22.83;;;18.80;77.00;;;;;;5055200;28;20040;-71
2023/09/16 09:52:55;;;;;;;23.50;21.35;;;18.80;77.40;;;;;;5061983;28;20124;-72
2023/09/16 09:55:27;;;;;;;24.27;21.98;;;18.90;76.90;;;;;;5056167;28;20562;-69
2023/09/16 09:57:53;;;;;;;26.40;23.60;;;18.90;76.70;;;;;;5061267;28;20043;-70
2023/09/16 10:00:22;;;;;;;25.30;22.73;;;18.90;76.60;;;;;;5066784;28;20141;-70
2023/09/16 10:02:49;;;;;;;24.77;22.38;;;19.00;76.70;;;;;;5050454;28;20464;-69
2023/09/16 10:05:21;;;;;;;24.17;22.10;;;19.00;76.60;;;;;;5055293;28;20750;-71
2023/09/16 10:07:52;;;;;;;25.38;23.00;;;19.00;76.40;;;;;;5059886;28;20501;-69
2023/09/16 10:10:25;;;;;;;26.95;24.15;;;19.00;76.30;;;;;;5052268;28;20044;-69
2023/09/16 10:12:56;;;;;;;26.23;23.48;;;19.00;76.20;;;;;;5056126;28;20117;-69
2023/09/16 10:15:33;;;;;;;24.50;22.23;;;19.00;76.10;;;;;;5057992;28;20514;-69
2023/09/16 10:17:59;;;;;;;26.33;23.75;;;19.10;76.20;;;;;;5058500;28;20067;-72
2023/09/16 10:20:29;;;;;;;23.38;21.30;;;19.10;76.00;;;;;;5054032;28;20473;-70
2023/09/16 10:22:57;;;;;;;23.98;21.75;;;19.20;76.00;;;;;;5055736;28;20039;-69
2023/09/16 10:25:23;;;;;;;24.00;21.70;;;19.20;75.80;;;;;;5053492;28;20047;-70
2023/09/16 10:28:04;;;;;;;24.85;22.48;;;19.20;75.60;;;;;;5063299;28;20627;-69
2023/09/16 10:30:32;;;;;;;24.63;22.20;;;19.30;75.60;;;;;;5057284;28;20028;-70
2023/09/16 10:33:06;;;;;;;24.45;22.10;;;19.40;75.60;;;;;;5054262;28;20460;-69
2023/09/16 10:35:37;;;;;;;26.75;24.25;;;19.50;75.50;;;;;;5058811;28;20450;-70
2023/09/16 10:38:06;;;;;;;27.10;24.60;;;19.60;75.30;;;;;;5065420;28;20554;-69
2023/09/16 10:40:32;;;;;;;27.67;24.90;;;19.70;75.20;;;;;;5061646;28;20154;-70
2023/09/16 10:43:01;;;;;;;29.02;26.30;;;19.70;75.00;;;;;;5052670;28;20037;-69
2023/09/16 10:45:27;;;;;;;27.65;25.02;;;19.90;75.10;;;;;;5058557;28;20463;-69
2023/09/16 10:47:54;;;;;;;26.60;23.90;;;19.90;75.30;;;;;;5045621;28;20210;-69
2023/09/16 10:50:29;;;;;;;28.88;26.00;;;20.00;74.70;;;;;;5051613;28;20407;-71
2023/09/16 10:53:10;;;;;;;30.52;27.42;;;20.10;74.70;;;;;;5062518;28;20097;-69
2023/09/16 10:55:59;;;;;;;28.35;25.55;;;20.20;74.60;;;;;;5050100;28;20039;-70
2023/09/16 10:58:48;;;;;;;30.67;27.33;;;20.20;74.30;;;;;;5049391;28;20044;-69
2023/09/16 11:01:26;;;;;;;29.13;26.10;;;20.30;74.40;;;;;;5052042;28;20074;-70
2023/09/16 11:04:02;;;;;;;32.45;27.95;;;20.30;74.30;;;;;;5052143;28;20060;-68
2023/09/16 11:06:29;;;;;;;45.63;32.20;;;20.40;74.40;;;;;;5057747;28;20075;-69
2023/09/16 11:08:55;;;;;;;44.97;33.53;;;20.40;74.40;;;;;;5059477;28;20033;-69
2023/09/16 11:11:21;;;;;;;46.63;36.05;;;20.50;74.90;;;;;;5055969;28;20520;-69
2023/09/16 11:13:48;;;;;;;59.50;36.88;;;20.50;75.20;;;;;;5056425;28;20029;-69
2023/09/16 11:16:14;;;;;;;47.63;38.30;;;20.50;75.60;;;;;;5058594;28;20519;-68
2023/09/16 11:18:42;;;;;;;52.03;38.78;;;20.60;76.20;;;;;;5055460;28;20049;-68
2023/09/16 11:21:09;;;;;;;45.03;38.08;;;20.60;76.60;;;;;;5053383;28;20197;-68
2023/09/16 11:23:36;;;;;;;44.75;35.95;;;20.60;76.70;;;;;;5052399;28;20060;-69
2023/09/16 11:26:04;;;;;;;37.63;33.53;;;20.70;77.00;;;;;;5057343;28;20493;-68
2023/09/16 11:28:30;;;;;;;42.13;32.90;;;20.70;77.00;;;;;;5059201;28;20032;-68
2023/09/16 11:30:59;;;;;;;33.97;30.33;;;20.70;76.90;;;;;;5055288;28;20555;-68
2023/09/16 11:33:35;;;;;;;36.80;30.52;;;20.80;76.90;;;;;;5054298;28;20051;-68
2023/09/16 11:36:13;;;;;;;34.05;29.58;;;20.80;76.70;;;;;;5057967;28;20063;-69
2023/09/16 11:38:54;;;;;;;32.38;28.83;;;20.80;76.50;;;;;;5049421;28;20448;-68
2023/09/16 11:41:20;;;;;;;34.83;27.77;;;20.90;76.50;;;;;;5058150;28;20372;-68
2023/09/16 11:43:47;;;;;;;33.53;28.27;;;20.80;76.20;;;;;;5054342;28;20291;-68
2023/09/16 11:46:13;;;;;;;33.30;27.08;;;20.90;76.30;;;;;;5052674;28;20036;-68
2023/09/16 11:48:50;;;;;;;33.28;27.35;;;20.80;76.00;;;;;;5054205;28;20075;-70
2023/09/16 11:51:18;;;;;;;31.75;28.30;;;20.80;75.90;;;;;;5057223;28;20051;-68
2023/09/16 11:53:45;;;;;;;33.00;29.42;;;20.80;75.80;;;;;;5058290;28;20036;-68
2023/09/16 11:56:11;;;;;;;29.30;26.17;;;20.80;75.80;;;;;;5055619;28;20035;-68
2023/09/16 11:58:42;;;;;;;31.63;27.38;;;20.80;75.70;;;;;;5055654;28;20024;-69
2023/09/16 12:01:10;;;;;;;29.40;24.92;;;20.80;75.70;;;;;;5055636;28;20028;-69
2023/09/16 12:03:36;;;;;;;29.13;25.80;;;20.80;75.70;;;;;;5045865;28;20045;-69
2023/09/16 12:06:03;;;;;;;28.38;25.40;;;20.80;75.60;;;;;;5055324;28;20100;-69
2023/09/16 12:08:29;;;;;;;29.70;26.50;;;20.80;75.50;;;;;;5057299;28;20040;-69
2023/09/16 12:10:56;;;;;;;29.80;26.63;;;20.80;76.00;;;;;;5055512;28;20108;-68
2023/09/16 12:13:27;;;;;;;31.30;25.80;;;20.80;75.30;;;;;;5056357;28;20020;-69
2023/09/16 12:15:53;;;;;;;30.25;26.98;;;20.90;75.40;;;;;;5053878;28;20519;-70
2023/09/16 12:18:19;;;;;;;30.35;26.63;;;20.90;75.30;;;;;;5055592;28;20175;-69
2023/09/16 12:20:46;;;;;;;29.52;26.45;;;20.80;75.10;;;;;;5054176;28;20157;-69
2023/09/16 12:23:14;;;;;;;30.70;26.45;;;20.80;75.00;;;;;;5055991;28;20685;-69
2023/09/16 12:25:41;;;;;;;34.70;27.92;;;20.90;75.10;;;;;;5056875;28;20070;-68
2023/09/16 12:28:16;;;;;;;31.23;27.85;;;20.90;75.00;;;;;;5056677;28;20109;-69
2023/09/16 12:30:43;;;;;;;31.77;28.38;;;20.90;74.90;;;;;;5060245;28;20075;-69
2023/09/16 12:33:10;;;;;;;29.85;26.70;;;20.90;74.80;;;;;;5060620;28;20020;-69
2023/09/16 12:35:39;;;;;;;30.88;27.55;;;21.00;74.90;;;;;;5055750;28;20024;-70
2023/09/16 12:38:09;;;;;;;34.00;28.20;;;21.00;74.70;;;;;;5056002;28;20448;-69
2023/09/16 12:40:35;;;;;;;33.17;28.17;;;21.10;74.80;;;;;;5068262;28;20035;-71